sensor_id;sensor_type;location;lat;lon;timestamp;P1;durP1;ratioP1;P2;durP2;ratioP2
49972;SDS011;65693;49.798;10.968;2023-05-10T00:00:11;3.47;;;2.53;;
49972;SDS011;65693;49.798;10.968;2023-05-10T00:02:38;4.07;;;2.65;;
49972;SDS011;65693;49.798;10.968;2023-05-10T00:05:05;3.90;;;2.60;;
49972;SDS011;65693;49.798;10.968;2023-05-10T00:07:32;3.63;;;2.60;;
49972;SDS011;65693;49.798;10.968;2023-05-10T00:09:59;3.67;;;2.40;;
49972;SDS011;65693;49.798;10.968;2023-05-10T00:12:26;4.00;;;2.90;;
49972;SDS011;65693;49.798;10.968;2023-05-10T00:14:53;3.55;;;2.60;;
49972;SDS011;65693;49.798;10.968;2023-05-10T00:17:19;3.22;;;2.25;;
49972;SDS011;65693;49.798;10.968;2023-05-10T00:19:46;3.47;;;2.67;;
49972;SDS011;65693;49.798;10.968;2023-05-10T00:22:13;3.22;;;2.35;;
49972;SDS011;65693;49.798;10.968;2023-05-10T00:24:39;3.33;;;2.47;;
49972;SDS011;65693;49.798;10.968;2023-05-10T00:27:05;4.10;;;2.97;;
49972;SDS011;65693;49.798;10.968;2023-05-10T00:29:33;3.63;;;2.50;;
49972;SDS011;65693;49.798;10.968;2023-05-10T00:32:00;3.88;;;2.80;;
49972;SDS011;65693;49.798;10.968;2023-05-10T00:34:26;3.55;;;2.60;;
49972;SDS011;65693;49.798;10.968;2023-05-10T00:36:53;3.90;;;2.65;;
49972;SDS011;65693;49.798;10.968;2023-05-10T00:39:19;3.05;;;2.38;;
49972;SDS011;65693;49.798;10.968;2023-05-10T00:41:46;3.67;;;2.88;;
49972;SDS011;65693;49.798;10.968;2023-05-10T00:44:12;4.55;;;2.65;;
49972;SDS011;65693;49.798;10.968;2023-05-10T00:46:41;4.18;;;2.72;;
49972;SDS011;65693;49.798;10.968;2023-05-10T00:49:08;3.67;;;2.90;;
49972;SDS011;65693;49.798;10.968;2023-05-10T00:51:34;3.85;;;2.60;;
49972;SDS011;65693;49.798;10.968;2023-05-10T00:54:01;3.70;;;2.92;;
49972;SDS011;65693;49.798;10.968;2023-05-10T00:56:28;3.63;;;2.33;;
49972;SDS011;65693;49.798;10.968;2023-05-10T00:58:55;4.03;;;2.80;;
49972;SDS011;65693;49.798;10.968;2023-05-10T01:01:22;3.55;;;2.55;;
49972;SDS011;65693;49.798;10.968;2023-05-10T01:03:50;3.88;;;2.58;;
49972;SDS011;65693;49.798;10.968;2023-05-10T01:06:17;3.40;;;2.60;;
49972;SDS011;65693;49.798;10.968;2023-05-10T01:08:43;3.75;;;2.63;;
49972;SDS011;65693;49.798;10.968;2023-05-10T01:11:10;4.20;;;2.83;;
49972;SDS011;65693;49.798;10.968;2023-05-10T01:13:37;4.60;;;2.78;;
49972;SDS011;65693;49.798;10.968;2023-05-10T01:16:05;3.58;;;2.70;;
49972;SDS011;65693;49.798;10.968;2023-05-10T01:18:33;3.72;;;2.50;;
49972;SDS011;65693;49.798;10.968;2023-05-10T01:21:04;4.32;;;3.20;;
49972;SDS011;65693;49.798;10.968;2023-05-10T01:23:45;4.13;;;2.92;;
49972;SDS011;65693;49.798;10.968;2023-05-10T01:29:46;3.90;;;2.72;;
49972;SDS011;65693;49.798;10.968;2023-05-10T01:32:31;5.00;;;2.78;;
49972;SDS011;65693;49.798;10.968;2023-05-10T01:35:03;3.38;;;2.50;;
49972;SDS011;65693;49.798;10.968;2023-05-10T01:37:36;3.67;;;2.58;;
49972;SDS011;65693;49.798;10.968;2023-05-10T01:40:08;4.07;;;2.85;;
49972;SDS011;65693;49.798;10.968;2023-05-10T01:42:45;3.67;;;2.63;;
49972;SDS011;65693;49.798;10.968;2023-05-10T01:45:15;5.05;;;3.42;;
49972;SDS011;65693;49.798;10.968;2023-05-10T01:47:50;4.00;;;3.15;;
49972;SDS011;65693;49.798;10.968;2023-05-10T01:50:24;4.05;;;3.00;;
49972;SDS011;65693;49.798;10.968;2023-05-10T01:52:55;4.25;;;2.83;;
49972;SDS011;65693;49.798;10.968;2023-05-10T01:55:24;3.65;;;2.60;;
49972;SDS011;65693;49.798;10.968;2023-05-10T01:57:55;3.70;;;2.53;;
49972;SDS011;65693;49.798;10.968;2023-05-10T02:00:28;3.90;;;2.95;;
49972;SDS011;65693;49.798;10.968;2023-05-10T02:02:57;4.38;;;2.60;;
49972;SDS011;65693;49.798;10.968;2023-05-10T02:05:26;3.92;;;2.83;;
49972;SDS011;65693;49.798;10.968;2023-05-10T02:07:55;3.75;;;2.80;;
49972;SDS011;65693;49.798;10.968;2023-05-10T02:10:23;4.15;;;2.80;;
49972;SDS011;65693;49.798;10.968;2023-05-10T02:12:50;4.65;;;3.17;;
49972;SDS011;65693;49.798;10.968;2023-05-10T02:15:20;5.00;;;2.80;;
49972;SDS011;65693;49.798;10.968;2023-05-10T02:17:48;3.95;;;2.80;;
49972;SDS011;65693;49.798;10.968;2023-05-10T02:20:16;4.15;;;3.00;;
49972;SDS011;65693;49.798;10.968;2023-05-10T02:22:46;3.95;;;2.80;;
49972;SDS011;65693;49.798;10.968;2023-05-10T02:25:15;4.00;;;2.90;;
49972;SDS011;65693;49.798;10.968;2023-05-10T02:27:43;4.20;;;2.70;;
49972;SDS011;65693;49.798;10.968;2023-05-10T02:30:12;5.20;;;2.90;;
49972;SDS011;65693;49.798;10.968;2023-05-10T02:32:39;4.30;;;3.00;;
49972;SDS011;65693;49.798;10.968;2023-05-10T02:35:08;4.57;;;3.03;;
49972;SDS011;65693;49.798;10.968;2023-05-10T02:37:37;3.92;;;2.92;;
49972;SDS011;65693;49.798;10.968;2023-05-10T02:40:05;4.35;;;3.10;;
49972;SDS011;65693;49.798;10.968;2023-05-10T02:42:33;3.92;;;2.97;;
49972;SDS011;65693;49.798;10.968;2023-05-10T02:45:04;3.65;;;2.75;;
49972;SDS011;65693;49.798;10.968;2023-05-10T02:47:34;3.78;;;2.78;;
49972;SDS011;65693;49.798;10.968;2023-05-10T02:50:01;4.18;;;3.28;;
49972;SDS011;65693;49.798;10.968;2023-05-10T02:52:30;3.67;;;2.70;;
49972;SDS011;65693;49.798;10.968;2023-05-10T02:55:05;4.20;;;3.50;;
49972;SDS011;65693;49.798;10.968;2023-05-10T02:57:35;3.70;;;3.10;;
49972;SDS011;65693;49.798;10.968;2023-05-10T03:00:07;3.58;;;2.80;;
49972;SDS011;65693;49.798;10.968;2023-05-10T03:02:34;4.32;;;3.15;;
49972;SDS011;65693;49.798;10.968;2023-05-10T03:05:01;3.47;;;2.63;;
49972;SDS011;65693;49.798;10.968;2023-05-10T03:07:28;4.70;;;3.08;;
49972;SDS011;65693;49.798;10.968;2023-05-10T03:09:56;4.60;;;2.92;;
49972;SDS011;65693;49.798;10.968;2023-05-10T03:12:23;3.97;;;3.10;;
49972;SDS011;65693;49.798;10.968;2023-05-10T03:15:11;3.88;;;2.80;;
49972;SDS011;65693;49.798;10.968;2023-05-10T03:17:47;4.53;;;3.20;;
49972;SDS011;65693;49.798;10.968;2023-05-10T03:20:20;3.95;;;3.00;;
49972;SDS011;65693;49.798;10.968;2023-05-10T03:22:51;5.38;;;3.40;;
49972;SDS011;65693;49.798;10.968;2023-05-10T03:25:22;3.83;;;2.60;;
49972;SDS011;65693;49.798;10.968;2023-05-10T03:27:49;3.88;;;2.90;;
49972;SDS011;65693;49.798;10.968;2023-05-10T03:30:18;3.83;;;2.80;;
49972;SDS011;65693;49.798;10.968;2023-05-10T03:32:45;3.92;;;3.03;;
49972;SDS011;65693;49.798;10.968;2023-05-10T03:35:12;4.20;;;2.90;;
49972;SDS011;65693;49.798;10.968;2023-05-10T03:37:39;3.95;;;2.83;;
49972;SDS011;65693;49.798;10.968;2023-05-10T03:40:06;4.10;;;2.90;;
49972;SDS011;65693;49.798;10.968;2023-05-10T03:42:34;4.75;;;3.10;;
49972;SDS011;65693;49.798;10.968;2023-05-10T03:45:01;4.70;;;3.20;;
49972;SDS011;65693;49.798;10.968;2023-05-10T03:47:27;3.58;;;2.75;;
49972;SDS011;65693;49.798;10.968;2023-05-10T03:49:54;3.97;;;2.80;;
49972;SDS011;65693;49.798;10.968;2023-05-10T03:52:21;3.88;;;2.63;;
49972;SDS011;65693;49.798;10.968;2023-05-10T03:54:47;4.55;;;3.03;;
49972;SDS011;65693;49.798;10.968;2023-05-10T03:57:13;3.85;;;2.80;;
49972;SDS011;65693;49.798;10.968;2023-05-10T03:59:41;3.50;;;2.88;;
49972;SDS011;65693;49.798;10.968;2023-05-10T04:02:08;4.10;;;3.00;;
49972;SDS011;65693;49.798;10.968;2023-05-10T04:04:34;4.13;;;2.70;;
49972;SDS011;65693;49.798;10.968;2023-05-10T04:07:01;3.88;;;2.90;;
49972;SDS011;65693;49.798;10.968;2023-05-10T04:09:27;3.88;;;2.67;;
49972;SDS011;65693;49.798;10.968;2023-05-10T04:11:54;4.80;;;3.10;;
49972;SDS011;65693;49.798;10.968;2023-05-10T04:14:20;4.25;;;3.05;;
49972;SDS011;65693;49.798;10.968;2023-05-10T04:16:48;3.65;;;2.90;;
49972;SDS011;65693;49.798;10.968;2023-05-10T04:19:15;3.78;;;2.63;;
49972;SDS011;65693;49.798;10.968;2023-05-10T04:21:41;3.85;;;2.80;;
49972;SDS011;65693;49.798;10.968;2023-05-10T04:24:08;4.03;;;2.75;;
49972;SDS011;65693;49.798;10.968;2023-05-10T04:26:34;3.85;;;2.95;;
49972;SDS011;65693;49.798;10.968;2023-05-10T04:29:01;4.57;;;3.03;;
49972;SDS011;65693;49.798;10.968;2023-05-10T04:31:27;3.83;;;2.70;;
49972;SDS011;65693;49.798;10.968;2023-05-10T04:33:55;3.50;;;2.67;;
49972;SDS011;65693;49.798;10.968;2023-05-10T04:36:21;3.70;;;2.78;;
49972;SDS011;65693;49.798;10.968;2023-05-10T04:38:48;3.35;;;2.60;;
49972;SDS011;65693;49.798;10.968;2023-05-10T04:41:14;3.72;;;2.90;;
49972;SDS011;65693;49.798;10.968;2023-05-10T04:43:41;3.65;;;2.33;;
49972;SDS011;65693;49.798;10.968;2023-05-10T04:46:07;5.03;;;2.38;;
49972;SDS011;65693;49.798;10.968;2023-05-10T04:48:33;3.30;;;2.38;;
49972;SDS011;65693;49.798;10.968;2023-05-10T04:51:01;4.22;;;2.25;;
49972;SDS011;65693;49.798;10.968;2023-05-10T04:53:29;3.15;;;2.22;;
49972;SDS011;65693;49.798;10.968;2023-05-10T04:55:55;4.80;;;2.47;;
49972;SDS011;65693;49.798;10.968;2023-05-10T04:58:22;3.35;;;2.10;;
49972;SDS011;65693;49.798;10.968;2023-05-10T05:00:48;3.65;;;2.50;;
49972;SDS011;65693;49.798;10.968;2023-05-10T05:03:15;3.80;;;2.40;;
49972;SDS011;65693;49.798;10.968;2023-05-10T05:05:42;3.88;;;2.33;;
49972;SDS011;65693;49.798;10.968;2023-05-10T05:08:10;3.47;;;2.40;;
49972;SDS011;65693;49.798;10.968;2023-05-10T05:10:37;5.45;;;2.55;;
49972;SDS011;65693;49.798;10.968;2023-05-10T05:13:04;3.42;;;2.13;;
49972;SDS011;65693;49.798;10.968;2023-05-10T05:15:30;3.35;;;2.38;;
49972;SDS011;65693;49.798;10.968;2023-05-10T05:17:57;3.60;;;2.45;;
49972;SDS011;65693;49.798;10.968;2023-05-10T05:20:23;3.30;;;2.80;;
49972;SDS011;65693;49.798;10.968;2023-05-10T05:22:50;3.05;;;2.25;;
49972;SDS011;65693;49.798;10.968;2023-05-10T05:25:17;3.78;;;2.50;;
49972;SDS011;65693;49.798;10.968;2023-05-10T05:27:44;3.50;;;2.47;;
49972;SDS011;65693;49.798;10.968;2023-05-10T05:30:11;3.60;;;2.67;;
49972;SDS011;65693;49.798;10.968;2023-05-10T05:32:37;3.13;;;2.13;;
49972;SDS011;65693;49.798;10.968;2023-05-10T05:35:04;3.13;;;2.22;;
49972;SDS011;65693;49.798;10.968;2023-05-10T05:37:31;3.50;;;2.28;;
49972;SDS011;65693;49.798;10.968;2023-05-10T05:39:57;3.65;;;2.50;;
49972;SDS011;65693;49.798;10.968;2023-05-10T05:42:27;3.17;;;2.22;;
49972;SDS011;65693;49.798;10.968;2023-05-10T05:44:53;3.35;;;2.40;;
49972;SDS011;65693;49.798;10.968;2023-05-10T05:47:20;3.42;;;2.25;;
49972;SDS011;65693;49.798;10.968;2023-05-10T05:49:46;3.88;;;2.40;;
49972;SDS011;65693;49.798;10.968;2023-05-10T05:52:13;3.10;;;2.10;;
49972;SDS011;65693;49.798;10.968;2023-05-10T05:54:39;3.85;;;2.63;;
49972;SDS011;65693;49.798;10.968;2023-05-10T05:57:06;3.22;;;2.13;;
49972;SDS011;65693;49.798;10.968;2023-05-10T05:59:33;3.08;;;2.20;;
49972;SDS011;65693;49.798;10.968;2023-05-10T06:02:00;3.53;;;2.47;;
49972;SDS011;65693;49.798;10.968;2023-05-10T06:04:26;3.58;;;2.25;;
49972;SDS011;65693;49.798;10.968;2023-05-10T06:06:53;3.58;;;2.20;;
49972;SDS011;65693;49.798;10.968;2023-05-10T06:09:19;3.88;;;2.22;;
49972;SDS011;65693;49.798;10.968;2023-05-10T06:11:46;3.65;;;2.30;;
49972;SDS011;65693;49.798;10.968;2023-05-10T06:14:14;3.90;;;2.50;;
49972;SDS011;65693;49.798;10.968;2023-05-10T06:16:42;3.42;;;2.20;;
49972;SDS011;65693;49.798;10.968;2023-05-10T06:19:09;3.63;;;2.40;;
49972;SDS011;65693;49.798;10.968;2023-05-10T06:21:35;3.65;;;2.40;;
49972;SDS011;65693;49.798;10.968;2023-05-10T06:24:02;3.88;;;2.22;;
49972;SDS011;65693;49.798;10.968;2023-05-10T06:26:28;3.33;;;2.20;;
49972;SDS011;65693;49.798;10.968;2023-05-10T06:28:55;3.42;;;2.28;;
49972;SDS011;65693;49.798;10.968;2023-05-10T06:31:21;3.75;;;2.60;;
49972;SDS011;65693;49.798;10.968;2023-05-10T06:33:49;3.05;;;2.03;;
49972;SDS011;65693;49.798;10.968;2023-05-10T06:36:15;3.03;;;2.40;;
49972;SDS011;65693;49.798;10.968;2023-05-10T06:38:42;3.00;;;2.15;;
49972;SDS011;65693;49.798;10.968;2023-05-10T06:41:08;3.40;;;2.30;;
49972;SDS011;65693;49.798;10.968;2023-05-10T06:43:35;3.35;;;2.25;;
49972;SDS011;65693;49.798;10.968;2023-05-10T06:46:04;3.22;;;2.17;;
49972;SDS011;65693;49.798;10.968;2023-05-10T06:48:31;2.67;;;1.90;;
49972;SDS011;65693;49.798;10.968;2023-05-10T06:50:59;3.92;;;2.10;;
49972;SDS011;65693;49.798;10.968;2023-05-10T06:53:25;3.08;;;2.00;;
49972;SDS011;65693;49.798;10.968;2023-05-10T06:55:52;3.00;;;2.10;;
49972;SDS011;65693;49.798;10.968;2023-05-10T06:58:18;3.10;;;2.25;;
49972;SDS011;65693;49.798;10.968;2023-05-10T07:00:45;2.83;;;2.00;;
49972;SDS011;65693;49.798;10.968;2023-05-10T07:03:12;2.60;;;2.03;;
49972;SDS011;65693;49.798;10.968;2023-05-10T07:05:38;3.15;;;2.28;;
49972;SDS011;65693;49.798;10.968;2023-05-10T07:08:06;2.75;;;2.15;;
49972;SDS011;65693;49.798;10.968;2023-05-10T07:10:33;3.28;;;2.25;;
49972;SDS011;65693;49.798;10.968;2023-05-10T07:12:59;2.72;;;2.00;;
49972;SDS011;65693;49.798;10.968;2023-05-10T07:15:26;3.00;;;2.13;;
49972;SDS011;65693;49.798;10.968;2023-05-10T07:17:53;3.20;;;2.08;;
49972;SDS011;65693;49.798;10.968;2023-05-10T07:20:19;3.40;;;2.35;;
49972;SDS011;65693;49.798;10.968;2023-05-10T07:22:46;3.05;;;2.30;;
49972;SDS011;65693;49.798;10.968;2023-05-10T07:25:13;2.95;;;1.92;;
49972;SDS011;65693;49.798;10.968;2023-05-10T07:27:40;2.97;;;2.05;;
49972;SDS011;65693;49.798;10.968;2023-05-10T07:30:07;3.00;;;2.28;;
49972;SDS011;65693;49.798;10.968;2023-05-10T07:32:34;2.88;;;2.15;;
49972;SDS011;65693;49.798;10.968;2023-05-10T07:35:00;2.40;;;1.80;;
49972;SDS011;65693;49.798;10.968;2023-05-10T07:37:27;2.65;;;2.08;;
49972;SDS011;65693;49.798;10.968;2023-05-10T07:39:53;3.22;;;1.90;;
49972;SDS011;65693;49.798;10.968;2023-05-10T07:42:22;3.05;;;2.05;;
49972;SDS011;65693;49.798;10.968;2023-05-10T07:44:48;3.58;;;2.10;;
49972;SDS011;65693;49.798;10.968;2023-05-10T07:47:16;3.38;;;2.10;;
49972;SDS011;65693;49.798;10.968;2023-05-10T07:49:42;2.83;;;2.03;;
49972;SDS011;65693;49.798;10.968;2023-05-10T07:52:08;3.10;;;2.28;;
49972;SDS011;65693;49.798;10.968;2023-05-10T07:54:35;2.80;;;2.20;;
49972;SDS011;65693;49.798;10.968;2023-05-10T07:57:02;2.40;;;1.92;;
49972;SDS011;65693;49.798;10.968;2023-05-10T07:59:30;3.17;;;1.90;;
49972;SDS011;65693;49.798;10.968;2023-05-10T08:01:57;3.15;;;1.80;;
49972;SDS011;65693;49.798;10.968;2023-05-10T08:04:23;3.53;;;2.10;;
49972;SDS011;65693;49.798;10.968;2023-05-10T08:06:50;3.08;;;2.13;;
49972;SDS011;65693;49.798;10.968;2023-05-10T08:09:16;3.13;;;2.20;;
49972;SDS011;65693;49.798;10.968;2023-05-10T08:11:42;2.95;;;1.80;;
49972;SDS011;65693;49.798;10.968;2023-05-10T08:14:09;3.10;;;2.20;;
49972;SDS011;65693;49.798;10.968;2023-05-10T08:16:37;2.80;;;1.90;;
49972;SDS011;65693;49.798;10.968;2023-05-10T08:19:03;3.55;;;2.00;;
49972;SDS011;65693;49.798;10.968;2023-05-10T08:21:29;2.65;;;1.88;;
49972;SDS011;65693;49.798;10.968;2023-05-10T08:23:56;3.58;;;2.22;;
49972;SDS011;65693;49.798;10.968;2023-05-10T08:26:23;2.90;;;2.10;;
49972;SDS011;65693;49.798;10.968;2023-05-10T08:28:49;3.38;;;2.25;;
49972;SDS011;65693;49.798;10.968;2023-05-10T08:31:16;3.10;;;2.00;;
49972;SDS011;65693;49.798;10.968;2023-05-10T08:33:44;3.28;;;2.03;;
49972;SDS011;65693;49.798;10.968;2023-05-10T08:36:10;3.28;;;2.15;;
49972;SDS011;65693;49.798;10.968;2023-05-10T08:38:39;3.10;;;2.22;;
49972;SDS011;65693;49.798;10.968;2023-05-10T08:41:05;3.35;;;2.33;;
49972;SDS011;65693;49.798;10.968;2023-05-10T08:43:32;2.95;;;2.15;;
49972;SDS011;65693;49.798;10.968;2023-05-10T08:46:02;2.78;;;1.98;;
49972;SDS011;65693;49.798;10.968;2023-05-10T08:48:31;2.72;;;2.00;;
49972;SDS011;65693;49.798;10.968;2023-05-10T08:51:01;2.70;;;2.03;;
49972;SDS011;65693;49.798;10.968;2023-05-10T08:53:29;3.53;;;2.08;;
49972;SDS011;65693;49.798;10.968;2023-05-10T08:55:59;2.78;;;2.10;;
49972;SDS011;65693;49.798;10.968;2023-05-10T08:58:25;4.05;;;2.22;;
49972;SDS011;65693;49.798;10.968;2023-05-10T09:00:52;3.30;;;2.20;;
49972;SDS011;65693;49.798;10.968;2023-05-10T09:03:19;3.38;;;2.10;;
49972;SDS011;65693;49.798;10.968;2023-05-10T09:05:45;2.92;;;2.03;;
49972;SDS011;65693;49.798;10.968;2023-05-10T09:08:13;3.08;;;2.03;;
49972;SDS011;65693;49.798;10.968;2023-05-10T09:10:41;3.33;;;2.10;;
49972;SDS011;65693;49.798;10.968;2023-05-10T09:13:09;2.55;;;1.95;;
49972;SDS011;65693;49.798;10.968;2023-05-10T09:15:37;2.80;;;1.88;;
49972;SDS011;65693;49.798;10.968;2023-05-10T09:18:04;3.25;;;2.13;;
49972;SDS011;65693;49.798;10.968;2023-05-10T09:20:30;2.28;;;1.67;;
49972;SDS011;65693;49.798;10.968;2023-05-10T09:22:57;3.05;;;2.08;;
49972;SDS011;65693;49.798;10.968;2023-05-10T09:25:25;2.65;;;2.03;;
49972;SDS011;65693;49.798;10.968;2023-05-10T09:27:52;3.88;;;2.28;;
49972;SDS011;65693;49.798;10.968;2023-05-10T09:30:23;3.13;;;2.05;;
49972;SDS011;65693;49.798;10.968;2023-05-10T09:32:50;3.55;;;2.10;;
49972;SDS011;65693;49.798;10.968;2023-05-10T09:35:18;3.13;;;2.20;;
49972;SDS011;65693;49.798;10.968;2023-05-10T09:37:47;2.90;;;2.03;;
49972;SDS011;65693;49.798;10.968;2023-05-10T09:40:15;3.05;;;2.03;;
49972;SDS011;65693;49.798;10.968;2023-05-10T09:42:51;3.45;;;2.10;;
49972;SDS011;65693;49.798;10.968;2023-05-10T09:45:19;2.65;;;1.95;;
49972;SDS011;65693;49.798;10.968;2023-05-10T09:47:46;3.42;;;2.10;;
49972;SDS011;65693;49.798;10.968;2023-05-10T09:50:13;3.40;;;2.20;;
49972;SDS011;65693;49.798;10.968;2023-05-10T09:52:46;2.80;;;2.10;;
49972;SDS011;65693;49.798;10.968;2023-05-10T09:55:17;2.85;;;1.92;;
49972;SDS011;65693;49.798;10.968;2023-05-10T09:57:46;2.55;;;1.90;;
49972;SDS011;65693;49.798;10.968;2023-05-10T10:00:16;2.92;;;1.80;;
49972;SDS011;65693;49.798;10.968;2023-05-10T10:02:44;2.95;;;2.13;;
49972;SDS011;65693;49.798;10.968;2023-05-10T10:05:12;2.67;;;2.03;;
49972;SDS011;65693;49.798;10.968;2023-05-10T10:07:39;3.03;;;2.10;;
49972;SDS011;65693;49.798;10.968;2023-05-10T10:10:07;3.03;;;2.13;;
49972;SDS011;65693;49.798;10.968;2023-05-10T10:12:36;2.90;;;1.92;;
49972;SDS011;65693;49.798;10.968;2023-05-10T10:15:05;3.75;;;2.45;;
49972;SDS011;65693;49.798;10.968;2023-05-10T10:17:33;2.58;;;1.85;;
49972;SDS011;65693;49.798;10.968;2023-05-10T10:20:02;2.47;;;1.90;;
49972;SDS011;65693;49.798;10.968;2023-05-10T10:22:29;3.20;;;2.17;;
49972;SDS011;65693;49.798;10.968;2023-05-10T10:24:55;3.38;;;2.17;;
49972;SDS011;65693;49.798;10.968;2023-05-10T10:27:23;3.15;;;1.98;;
49972;SDS011;65693;49.798;10.968;2023-05-10T10:29:59;2.88;;;1.98;;
49972;SDS011;65693;49.798;10.968;2023-05-10T10:32:33;2.30;;;1.83;;
49972;SDS011;65693;49.798;10.968;2023-05-10T10:35:10;2.95;;;2.10;;
49972;SDS011;65693;49.798;10.968;2023-05-10T10:37:43;2.60;;;1.90;;
49972;SDS011;65693;49.798;10.968;2023-05-10T10:42:53;2.10;;;1.70;;
49972;SDS011;65693;49.798;10.968;2023-05-10T10:45:21;2.58;;;1.80;;
49972;SDS011;65693;49.798;10.968;2023-05-10T10:47:50;3.22;;;2.05;;
49972;SDS011;65693;49.798;10.968;2023-05-10T10:50:45;2.90;;;2.13;;
49972;SDS011;65693;49.798;10.968;2023-05-10T10:53:12;2.75;;;1.95;;
49972;SDS011;65693;49.798;10.968;2023-05-10T10:55:44;2.95;;;2.22;;
49972;SDS011;65693;49.798;10.968;2023-05-10T10:58:12;3.53;;;2.38;;
49972;SDS011;65693;49.798;10.968;2023-05-10T11:01:04;3.10;;;2.03;;
49972;SDS011;65693;49.798;10.968;2023-05-10T11:03:37;2.58;;;2.08;;
49972;SDS011;65693;49.798;10.968;2023-05-10T11:06:03;2.85;;;2.03;;
49972;SDS011;65693;49.798;10.968;2023-05-10T11:08:31;2.95;;;2.13;;
49972;SDS011;65693;49.798;10.968;2023-05-10T11:11:05;2.88;;;1.98;;
49972;SDS011;65693;49.798;10.968;2023-05-10T11:13:33;2.95;;;1.80;;
49972;SDS011;65693;49.798;10.968;2023-05-10T11:16:10;2.55;;;1.85;;
49972;SDS011;65693;49.798;10.968;2023-05-10T11:18:40;3.45;;;2.20;;
49972;SDS011;65693;49.798;10.968;2023-05-10T11:21:08;2.53;;;1.92;;
49972;SDS011;65693;49.798;10.968;2023-05-10T11:23:47;2.83;;;2.08;;
49972;SDS011;65693;49.798;10.968;2023-05-10T11:26:15;2.80;;;2.05;;
49972;SDS011;65693;49.798;10.968;2023-05-10T11:28:42;2.60;;;1.70;;
49972;SDS011;65693;49.798;10.968;2023-05-10T11:31:09;3.25;;;2.17;;
49972;SDS011;65693;49.798;10.968;2023-05-10T11:33:43;2.92;;;2.00;;
49972;SDS011;65693;49.798;10.968;2023-05-10T11:36:10;2.92;;;2.05;;
49972;SDS011;65693;49.798;10.968;2023-05-10T11:38:37;2.60;;;1.92;;
49972;SDS011;65693;49.798;10.968;2023-05-10T11:41:04;2.45;;;2.03;;
49972;SDS011;65693;49.798;10.968;2023-05-10T11:43:30;3.78;;;2.08;;
49972;SDS011;65693;49.798;10.968;2023-05-10T11:45:57;3.20;;;1.70;;
49972;SDS011;65693;49.798;10.968;2023-05-10T11:48:23;4.70;;;2.65;;
49972;SDS011;65693;49.798;10.968;2023-05-10T11:50:51;2.72;;;1.85;;
49972;SDS011;65693;49.798;10.968;2023-05-10T11:53:21;2.83;;;2.10;;
49972;SDS011;65693;49.798;10.968;2023-05-10T11:55:48;3.10;;;2.10;;
49972;SDS011;65693;49.798;10.968;2023-05-10T11:58:14;3.20;;;2.20;;
49972;SDS011;65693;49.798;10.968;2023-05-10T12:00:41;3.00;;;2.05;;
49972;SDS011;65693;49.798;10.968;2023-05-10T12:03:07;2.85;;;1.92;;
49972;SDS011;65693;49.798;10.968;2023-05-10T12:05:35;2.38;;;1.67;;
49972;SDS011;65693;49.798;10.968;2023-05-10T12:08:12;2.90;;;2.10;;
49972;SDS011;65693;49.798;10.968;2023-05-10T12:10:40;2.67;;;2.00;;
49972;SDS011;65693;49.798;10.968;2023-05-10T12:13:10;2.40;;;1.90;;
49972;SDS011;65693;49.798;10.968;2023-05-10T12:15:37;3.00;;;2.05;;
49972;SDS011;65693;49.798;10.968;2023-05-10T12:18:03;2.83;;;1.98;;
49972;SDS011;65693;49.798;10.968;2023-05-10T12:20:30;3.35;;;1.98;;
49972;SDS011;65693;49.798;10.968;2023-05-10T12:22:57;2.47;;;1.75;;
49972;SDS011;65693;49.798;10.968;2023-05-10T12:25:31;3.30;;;1.85;;
49972;SDS011;65693;49.798;10.968;2023-05-10T12:27:59;2.83;;;1.95;;
49972;SDS011;65693;49.798;10.968;2023-05-10T12:30:27;3.25;;;2.35;;
49972;SDS011;65693;49.798;10.968;2023-05-10T12:32:59;2.75;;;2.05;;
49972;SDS011;65693;49.798;10.968;2023-05-10T12:35:27;2.55;;;1.83;;
49972;SDS011;65693;49.798;10.968;2023-05-10T12:37:56;2.75;;;2.03;;
49972;SDS011;65693;49.798;10.968;2023-05-10T12:40:22;3.70;;;2.00;;
49972;SDS011;65693;49.798;10.968;2023-05-10T12:42:50;3.33;;;2.10;;
49972;SDS011;65693;49.798;10.968;2023-05-10T12:45:17;2.63;;;1.90;;
49972;SDS011;65693;49.798;10.968;2023-05-10T12:47:44;3.67;;;2.28;;
49972;SDS011;65693;49.798;10.968;2023-05-10T12:50:11;2.88;;;1.95;;
49972;SDS011;65693;49.798;10.968;2023-05-10T12:52:37;2.95;;;2.00;;
49972;SDS011;65693;49.798;10.968;2023-05-10T12:55:04;2.78;;;2.15;;
49972;SDS011;65693;49.798;10.968;2023-05-10T12:57:31;3.25;;;2.20;;
49972;SDS011;65693;49.798;10.968;2023-05-10T12:59:59;2.75;;;2.00;;
49972;SDS011;65693;49.798;10.968;2023-05-10T13:02:26;2.80;;;2.17;;
49972;SDS011;65693;49.798;10.968;2023-05-10T13:04:52;3.20;;;2.20;;
49972;SDS011;65693;49.798;10.968;2023-05-10T13:07:18;2.90;;;2.25;;
49972;SDS011;65693;49.798;10.968;2023-05-10T13:09:45;2.70;;;1.80;;
49972;SDS011;65693;49.798;10.968;2023-05-10T13:12:11;3.72;;;2.00;;
49972;SDS011;65693;49.798;10.968;2023-05-10T13:14:38;3.00;;;2.13;;
49972;SDS011;65693;49.798;10.968;2023-05-10T13:17:06;3.13;;;2.10;;
49972;SDS011;65693;49.798;10.968;2023-05-10T13:19:33;2.65;;;1.83;;
49972;SDS011;65693;49.798;10.968;2023-05-10T13:21:59;2.78;;;1.77;;
49972;SDS011;65693;49.798;10.968;2023-05-10T13:24:26;3.00;;;2.10;;
49972;SDS011;65693;49.798;10.968;2023-05-10T13:26:52;3.05;;;2.10;;
49972;SDS011;65693;49.798;10.968;2023-05-10T13:29:19;3.55;;;2.35;;
49972;SDS011;65693;49.798;10.968;2023-05-10T13:31:47;2.83;;;2.00;;
49972;SDS011;65693;49.798;10.968;2023-05-10T13:34:15;2.85;;;1.98;;
49972;SDS011;65693;49.798;10.968;2023-05-10T13:36:41;2.67;;;1.85;;
49972;SDS011;65693;49.798;10.968;2023-05-10T13:39:08;3.00;;;2.00;;
49972;SDS011;65693;49.798;10.968;2023-05-10T13:41:34;2.88;;;1.98;;
49972;SDS011;65693;49.798;10.968;2023-05-10T13:44:01;2.92;;;2.00;;
49972;SDS011;65693;49.798;10.968;2023-05-10T13:46:28;2.17;;;1.58;;
49972;SDS011;65693;49.798;10.968;2023-05-10T13:48:55;3.20;;;2.03;;
49972;SDS011;65693;49.798;10.968;2023-05-10T13:51:23;4.28;;;2.17;;
49972;SDS011;65693;49.798;10.968;2023-05-10T13:53:49;2.55;;;1.77;;
49972;SDS011;65693;49.798;10.968;2023-05-10T13:56:16;2.88;;;1.98;;
49972;SDS011;65693;49.798;10.968;2023-05-10T13:58:42;3.05;;;1.90;;
49972;SDS011;65693;49.798;10.968;2023-05-10T14:01:09;3.15;;;2.08;;
49972;SDS011;65693;49.798;10.968;2023-05-10T14:03:36;2.47;;;1.77;;
49972;SDS011;65693;49.798;10.968;2023-05-10T14:06:03;3.00;;;2.03;;
49972;SDS011;65693;49.798;10.968;2023-05-10T14:08:31;3.25;;;2.10;;
49972;SDS011;65693;49.798;10.968;2023-05-10T14:10:57;3.17;;;2.17;;
49972;SDS011;65693;49.798;10.968;2023-05-10T14:13:24;3.03;;;2.25;;
49972;SDS011;65693;49.798;10.968;2023-05-10T14:15:50;3.10;;;2.08;;
49972;SDS011;65693;49.798;10.968;2023-05-10T14:18:18;3.38;;;2.25;;
49972;SDS011;65693;49.798;10.968;2023-05-10T14:20:44;3.17;;;2.17;;
49972;SDS011;65693;49.798;10.968;2023-05-10T14:23:11;2.67;;;1.98;;
49972;SDS011;65693;49.798;10.968;2023-05-10T14:25:40;4.05;;;2.13;;
49972;SDS011;65693;49.798;10.968;2023-05-10T14:28:07;3.25;;;2.00;;
49972;SDS011;65693;49.798;10.968;2023-05-10T14:30:33;2.90;;;2.08;;
49972;SDS011;65693;49.798;10.968;2023-05-10T14:33:00;3.33;;;2.17;;
49972;SDS011;65693;49.798;10.968;2023-05-10T14:35:27;3.33;;;2.00;;
49972;SDS011;65693;49.798;10.968;2023-05-10T14:37:55;2.75;;;2.10;;
49972;SDS011;65693;49.798;10.968;2023-05-10T14:40:22;2.95;;;2.15;;
49972;SDS011;65693;49.798;10.968;2023-05-10T14:42:51;2.75;;;1.98;;